createdAt,value
2016-10-17T00:00:06.712Z,927.05
2016-10-17T00:01:17.308Z,927.05
2016-10-17T00:02:27.931Z,927.05
2016-10-17T00:03:38.458Z,927.07
2016-10-17T00:04:49.046Z,927.08
2016-10-17T00:05:59.629Z,927.09
2016-10-17T00:07:10.156Z,927.07
2016-10-17T00:10:03.274Z,927.1
2016-10-17T00:11:13.747Z,927.13
2016-10-17T00:12:24.268Z,927.09
2016-10-17T00:13:34.829Z,927.08
2016-10-17T00:14:45.372Z,927.08
2016-10-17T00:15:55.902Z,927.13
2016-10-17T00:17:06.453Z,927.12
2016-10-17T00:18:17.038Z,927.15
2016-10-17T00:19:27.723Z,927.17
2016-10-17T00:20:38.300Z,927.21
2016-10-17T00:21:48.893Z,927.21
2016-10-17T00:22:59.454Z,927.23
2016-10-17T00:24:10.011Z,927.23
2016-10-17T00:25:21.116Z,927.29
2016-10-17T00:26:31.692Z,927.28
2016-10-17T00:27:42.210Z,927.29
2016-10-17T00:28:52.773Z,927.24
2016-10-17T00:30:03.302Z,927.21
2016-10-17T00:31:13.900Z,927.26
2016-10-17T00:32:25.272Z,927.27
2016-10-17T00:33:35.852Z,927.26
2016-10-17T00:34:46.418Z,927.27
2016-10-17T00:35:56.979Z,927.29
2016-10-17T00:37:07.705Z,927.32
2016-10-17T00:38:18.262Z,927.28
2016-10-17T00:39:29.283Z,927.29
2016-10-17T00:40:39.807Z,927.25
2016-10-17T00:41:50.346Z,927.2
2016-10-17T00:43:01.025Z,927.21
2016-10-17T00:44:11.592Z,927.18
2016-10-17T00:45:22.088Z,927.23
2016-10-17T00:46:32.642Z,927.24
2016-10-17T00:47:43.406Z,927.26
2016-10-17T00:48:54.335Z,927.27
2016-10-17T00:50:05.179Z,927.31
2016-10-17T00:51:16.026Z,927.32
2016-10-17T00:52:26.824Z,927.3
2016-10-17T00:53:38.000Z,927.32
2016-10-17T00:54:48.876Z,927.36
2016-10-17T00:56:00.203Z,927.33
2016-10-17T00:57:10.990Z,927.33
2016-10-17T00:58:22.360Z,927.35
2016-10-17T00:59:33.124Z,927.32
2016-10-17T01:00:44.454Z,927.34
2016-10-17T01:01:55.182Z,927.37
2016-10-17T01:03:05.949Z,927.35
2016-10-17T01:04:16.742Z,927.33
2016-10-17T01:05:27.425Z,927.34
2016-10-17T01:06:38.144Z,927.32
2016-10-17T01:07:48.902Z,927.33
2016-10-17T01:08:59.550Z,927.28
2016-10-17T01:10:10.359Z,927.26
2016-10-17T01:11:21.076Z,927.23
2016-10-17T01:12:31.729Z,927.26
2016-10-17T01:13:42.465Z,927.23
2016-10-17T01:14:53.139Z,927.21
2016-10-17T01:16:03.771Z,927.2
2016-10-17T01:17:14.914Z,927.23
2016-10-17T01:18:25.625Z,927.22
2016-10-17T01:19:36.167Z,927.17
2016-10-17T01:20:46.736Z,927.2
2016-10-17T01:21:57.361Z,927.18
2016-10-17T01:23:08.006Z,927.15
2016-10-17T01:24:18.790Z,927.18
2016-10-17T01:25:29.956Z,927.15
2016-10-17T01:26:40.621Z,927.16
2016-10-17T01:27:51.237Z,927.18
2016-10-17T01:29:01.858Z,927.18
2016-10-17T01:30:12.514Z,927.21
2016-10-17T01:31:23.083Z,927.23
2016-10-17T01:32:34.063Z,927.2
2016-10-17T01:33:44.758Z,927.22
2016-10-17T01:34:55.320Z,927.21
2016-10-17T01:36:06.414Z,927.23
2016-10-17T01:37:48.703Z,927.31
2016-10-17T01:38:59.288Z,927.35
2016-10-17T01:40:09.866Z,927.34
2016-10-17T01:41:20.548Z,927.37
2016-10-17T01:42:31.107Z,927.37
2016-10-17T01:43:42.431Z,927.34
2016-10-17T01:44:52.978Z,927.35
2016-10-17T01:46:03.563Z,927.36
2016-10-17T01:47:14.219Z,927.34
2016-10-17T01:48:24.804Z,927.3
2016-10-17T01:49:35.366Z,927.31
2016-10-17T01:50:45.958Z,927.27
2016-10-17T01:51:56.502Z,927.3
2016-10-17T01:53:07.359Z,927.3
2016-10-17T01:54:17.913Z,927.31
2016-10-17T01:55:28.462Z,927.31
2016-10-17T01:56:39.434Z,927.32
2016-10-17T01:57:50.017Z,927.34
2016-10-17T01:59:00.574Z,927.39
2016-10-17T02:00:11.247Z,927.36
2016-10-17T02:01:22.233Z,927.4
2016-10-17T02:02:32.799Z,927.38
2016-10-17T02:03:43.382Z,927.39
2016-10-17T02:04:54.133Z,927.37
2016-10-17T02:06:04.862Z,927.36
2016-10-17T02:07:15.399Z,927.34
2016-10-17T02:08:26.082Z,927.34
2016-10-17T02:09:36.739Z,927.38
2016-10-17T02:10:47.482Z,927.38
2016-10-17T02:11:58.062Z,927.39
2016-10-17T02:13:08.829Z,927.36
2016-10-17T02:14:19.883Z,927.41
2016-10-17T02:15:30.577Z,927.39
2016-10-17T02:16:41.322Z,927.41
2016-10-17T02:17:51.997Z,927.38
2016-10-17T02:19:02.656Z,927.4
2016-10-17T02:20:13.221Z,927.4
2016-10-17T02:21:23.773Z,927.41
2016-10-17T02:22:34.379Z,927.4
2016-10-17T02:23:44.930Z,927.38
2016-10-17T02:24:55.622Z,927.37
2016-10-17T02:26:06.377Z,927.39
2016-10-17T02:27:16.951Z,927.36
2016-10-17T02:28:27.693Z,927.36
2016-10-17T02:29:38.257Z,927.33
2016-10-17T02:30:48.880Z,927.36
2016-10-17T02:31:59.583Z,927.35
2016-10-17T02:33:10.367Z,927.32
2016-10-17T02:34:21.222Z,927.35
2016-10-17T02:35:31.791Z,927.33
2016-10-17T02:36:42.471Z,927.33
2016-10-17T02:37:53.153Z,927.28
2016-10-17T02:39:03.866Z,927.31
2016-10-17T02:40:14.501Z,927.28
2016-10-17T02:41:25.242Z,927.28
2016-10-17T02:42:35.822Z,927.28
2016-10-17T02:43:46.331Z,927.25
2016-10-17T02:44:56.879Z,927.25
2016-10-17T02:46:07.517Z,927.28
2016-10-17T02:47:18.124Z,927.28
2016-10-17T02:48:28.667Z,927.26
2016-10-17T02:49:39.223Z,927.31
2016-10-17T02:50:49.762Z,927.31
2016-10-17T02:52:00.410Z,927.31
2016-10-17T02:53:10.948Z,927.29
2016-10-17T02:54:21.464Z,927.31
2016-10-17T02:55:31.998Z,927.29
2016-10-17T02:56:43.027Z,927.26
2016-10-17T02:57:53.560Z,927.29
2016-10-17T02:59:04.235Z,927.26
2016-10-17T03:00:14.792Z,927.23
2016-10-17T03:01:25.361Z,927.17
2016-10-17T03:02:35.851Z,927.23
2016-10-17T03:03:46.452Z,927.19
2016-10-17T03:04:56.940Z,927.15
2016-10-17T03:06:07.436Z,927.2
2016-10-17T03:07:17.911Z,927.18
2016-10-17T03:08:28.899Z,927.16
2016-10-17T03:09:39.495Z,927.18
2016-10-17T03:10:50.010Z,927.17
2016-10-17T03:12:00.557Z,927.22
2016-10-17T03:13:11.040Z,927.22
2016-10-17T03:14:21.574Z,927.21
2016-10-17T03:15:32.115Z,927.13
2016-10-17T03:16:42.741Z,927.14
2016-10-17T03:17:53.201Z,927.13
2016-10-17T03:19:07.273Z,927.16
2016-10-17T03:20:17.794Z,927.16
2016-10-17T03:21:28.395Z,927.14
2016-10-17T03:22:38.887Z,927.11
2016-10-17T03:23:49.404Z,927.09
2016-10-17T03:24:59.904Z,927.05
2016-10-17T03:26:10.421Z,927.07
2016-10-17T03:27:21.017Z,927.12
2016-10-17T03:28:31.553Z,927.08
2016-10-17T03:29:42.102Z,927.06
2016-10-17T03:30:52.591Z,927.03
2016-10-17T03:32:03.093Z,927.01
2016-10-17T03:33:13.674Z,927.04
2016-10-17T03:34:24.678Z,927.03
2016-10-17T03:35:35.160Z,927.02
2016-10-17T03:36:45.654Z,927.07
2016-10-17T03:37:56.140Z,927.06
2016-10-17T03:39:07.135Z,927.07
2016-10-17T03:40:17.606Z,927.05
2016-10-17T03:41:28.636Z,927
2016-10-17T03:42:39.093Z,927.01
2016-10-17T03:43:50.070Z,926.99
2016-10-17T03:45:00.670Z,926.88
2016-10-17T03:46:11.208Z,926.89
2016-10-17T03:47:21.716Z,926.88
2016-10-17T03:48:32.224Z,926.91
2016-10-17T03:49:42.765Z,926.84
2016-10-17T03:50:53.365Z,926.89
2016-10-17T03:52:03.843Z,926.9
2016-10-17T03:53:14.382Z,926.88
2016-10-17T03:54:24.902Z,926.87
2016-10-17T03:55:35.395Z,926.89
2016-10-17T03:56:45.879Z,926.92
2016-10-17T03:57:56.406Z,926.88
2016-10-17T03:59:06.917Z,926.9
2016-10-17T04:00:17.438Z,926.9
2016-10-17T04:01:27.969Z,926.91
2016-10-17T04:02:38.586Z,926.95
2016-10-17T04:03:49.110Z,926.98
2016-10-17T04:05:00.138Z,926.94
2016-10-17T04:06:10.632Z,926.94
2016-10-17T04:07:21.119Z,926.91
2016-10-17T04:08:31.671Z,926.97
2016-10-17T04:09:42.772Z,926.91
2016-10-17T04:10:53.279Z,926.91
2016-10-17T04:12:03.811Z,926.9
2016-10-17T04:13:14.316Z,926.89
2016-10-17T04:14:24.793Z,926.87
2016-10-17T04:15:35.271Z,926.87
2016-10-17T04:16:45.799Z,926.85
2016-10-17T04:17:56.809Z,926.81
2016-10-17T04:19:07.296Z,926.72
2016-10-17T04:20:17.850Z,926.7
2016-10-17T04:21:28.372Z,926.74
2016-10-17T04:22:38.842Z,926.69
2016-10-17T04:23:49.371Z,926.67
2016-10-17T04:24:59.834Z,926.67
2016-10-17T04:26:10.509Z,926.63
2016-10-17T04:27:21.006Z,926.63
2016-10-17T04:28:31.535Z,926.63
2016-10-17T04:29:42.023Z,926.61
2016-10-17T04:30:52.510Z,926.61
2016-10-17T04:32:03.076Z,926.6
2016-10-17T04:33:13.562Z,926.63
2016-10-17T04:34:24.594Z,926.64
2016-10-17T04:35:35.093Z,926.63
2016-10-17T04:36:45.596Z,926.65
2016-10-17T04:37:56.149Z,926.63
2016-10-17T04:39:06.651Z,926.63
2016-10-17T04:40:17.615Z,926.66
2016-10-17T04:41:28.145Z,926.65
2016-10-17T04:42:38.659Z,926.62
2016-10-17T04:43:49.638Z,926.64
2016-10-17T04:45:00.131Z,926.61
2016-10-17T04:46:11.098Z,926.64
2016-10-17T04:47:21.611Z,926.6
2016-10-17T04:48:32.095Z,926.58
2016-10-17T04:49:42.707Z,926.6
2016-10-17T04:50:53.689Z,926.62
2016-10-17T04:52:04.156Z,926.6
2016-10-17T04:53:14.670Z,926.58
2016-10-17T04:54:25.198Z,926.58
2016-10-17T04:55:35.818Z,926.59
2016-10-17T04:56:46.283Z,926.52
2016-10-17T04:57:56.805Z,926.58
2016-10-17T04:59:07.345Z,926.59
2016-10-17T05:00:18.319Z,926.61
2016-10-17T05:01:28.962Z,926.62
2016-10-17T05:02:39.462Z,926.63
2016-10-17T05:03:49.994Z,926.69
2016-10-17T05:05:00.543Z,926.65
2016-10-17T05:06:11.048Z,926.65
2016-10-17T05:07:21.646Z,926.64
2016-10-17T05:08:32.139Z,926.65
2016-10-17T05:09:42.626Z,926.66
2016-10-17T05:10:53.087Z,926.71
2016-10-17T05:12:03.556Z,926.7
2016-10-17T05:13:14.144Z,926.75
2016-10-17T05:14:24.681Z,926.78
2016-10-17T05:15:35.202Z,926.85
2016-10-17T05:16:45.675Z,926.94
2016-10-17T05:17:56.169Z,927.02
2016-10-17T05:19:07.183Z,927.04
2016-10-17T05:20:17.715Z,927
2016-10-17T05:21:28.239Z,927
2016-10-17T05:22:38.782Z,926.97
2016-10-17T05:23:49.276Z,927.04
2016-10-17T05:24:59.930Z,927.12
2016-10-17T05:26:10.492Z,927.17
2016-10-17T05:27:21.026Z,927.09
2016-10-17T05:28:31.547Z,927.17
2016-10-17T05:29:42.070Z,927.26
2016-10-17T05:30:52.659Z,927.35
2016-10-17T05:32:03.178Z,927.4
2016-10-17T05:33:13.729Z,927.45
2016-10-17T05:34:24.258Z,927.61
2016-10-17T05:35:34.797Z,927.69
2016-10-17T05:36:45.444Z,927.71
2016-10-17T05:37:55.995Z,927.71
2016-10-17T05:39:06.551Z,927.84
2016-10-17T05:40:17.047Z,927.88
2016-10-17T05:41:27.633Z,927.9
2016-10-17T05:42:38.183Z,927.91
2016-10-17T05:43:48.736Z,927.92
2016-10-17T05:44:59.290Z,927.96
2016-10-17T05:46:09.848Z,927.98
2016-10-17T05:47:20.360Z,928.04
2016-10-17T05:48:30.941Z,928.04
2016-10-17T05:49:41.481Z,928.04
2016-10-17T05:50:52.035Z,928.03
2016-10-17T05:52:02.589Z,928.06
2016-10-17T05:53:13.101Z,928.11
2016-10-17T05:54:23.705Z,928.14
2016-10-17T05:55:34.780Z,928.1
2016-10-17T05:56:45.337Z,928.09
2016-10-17T05:57:55.845Z,928.13
2016-10-17T05:59:06.347Z,928.13
2016-10-17T06:00:16.951Z,928.11
2016-10-17T06:01:27.471Z,928.17
2016-10-17T06:02:38.019Z,928.12
2016-10-17T06:03:48.585Z,928.19
2016-10-17T06:04:59.068Z,928.14
2016-10-17T06:06:10.111Z,928.25
2016-10-17T06:07:20.676Z,928.22
2016-10-17T06:08:31.195Z,928.26
2016-10-17T06:09:41.698Z,928.23
2016-10-17T06:10:52.270Z,928.25
2016-10-17T06:12:02.895Z,928.24
2016-10-17T06:13:13.423Z,928.26
2016-10-17T06:14:23.989Z,928.29
2016-10-17T06:15:34.498Z,928.28
2016-10-17T06:16:45.052Z,928.19
2016-10-17T06:17:55.702Z,928.26
2016-10-17T06:19:06.254Z,928.24
2016-10-17T06:20:16.779Z,928.26
2016-10-17T06:21:27.835Z,928.19
2016-10-17T06:22:38.392Z,928.17
2016-10-17T06:23:48.947Z,928.24
2016-10-17T06:24:59.478Z,928.27
2016-10-17T06:26:10.011Z,928.31
2016-10-17T06:27:20.542Z,928.35
2016-10-17T06:28:31.081Z,928.31
2016-10-17T06:29:41.739Z,928.32
2016-10-17T06:30:52.259Z,928.31
2016-10-17T06:32:02.790Z,928.31
2016-10-17T06:33:13.310Z,928.34
2016-10-17T06:34:23.855Z,928.34
2016-10-17T06:35:34.502Z,928.41
2016-10-17T06:36:44.986Z,928.34
2016-10-17T06:37:55.560Z,928.34
2016-10-17T06:39:06.100Z,928.36
2016-10-17T06:40:16.630Z,928.33
2016-10-17T06:41:27.273Z,928.26
2016-10-17T06:42:37.854Z,928.25
2016-10-17T06:43:48.393Z,928.34
2016-10-17T06:44:58.957Z,928.33
2016-10-17T06:46:09.528Z,928.3
2016-10-17T06:47:20.040Z,928.35
2016-10-17T06:48:30.600Z,928.28
2016-10-17T06:49:41.139Z,928.33
2016-10-17T06:50:51.680Z,928.38
2016-10-17T06:52:02.228Z,928.42
2016-10-17T06:53:12.850Z,928.39
2016-10-17T06:54:23.409Z,928.44
2016-10-17T06:55:33.967Z,928.55
2016-10-17T06:56:44.503Z,928.52
2016-10-17T06:57:55.082Z,928.49
2016-10-17T06:59:05.771Z,928.45
2016-10-17T07:00:16.378Z,928.46
2016-10-17T07:01:26.950Z,928.46
2016-10-17T07:02:37.520Z,928.47
2016-10-17T07:03:48.094Z,928.49
2016-10-17T07:04:58.763Z,928.48
2016-10-17T07:06:09.332Z,928.58
2016-10-17T07:07:19.893Z,928.55
2016-10-17T07:08:30.473Z,928.6
2016-10-17T07:09:41.052Z,928.64
2016-10-17T07:10:51.625Z,928.61
2016-10-17T07:12:02.204Z,928.62
2016-10-17T07:13:12.783Z,928.65
2016-10-17T07:14:23.380Z,928.69
2016-10-17T07:15:33.944Z,928.65
2016-10-17T07:16:44.627Z,928.69
2016-10-17T07:17:55.196Z,928.65
2016-10-17T07:19:05.762Z,928.59
2016-10-17T07:20:16.329Z,928.6
2016-10-17T07:21:27.393Z,928.57
2016-10-17T07:22:38.087Z,928.55
2016-10-17T07:23:48.655Z,928.53
2016-10-17T07:24:59.222Z,928.56
2016-10-17T07:26:09.804Z,928.5
2016-10-17T07:27:20.368Z,928.5
2016-10-17T07:28:31.038Z,928.57
2016-10-17T07:29:41.641Z,928.49
2016-10-17T07:30:52.163Z,928.52
2016-10-17T07:32:02.712Z,928.5
2016-10-17T07:33:13.283Z,928.54
2016-10-17T07:34:23.838Z,928.48
2016-10-17T07:35:34.821Z,928.47
2016-10-17T07:36:45.359Z,928.5
2016-10-17T07:37:55.898Z,928.42
2016-10-17T07:39:06.432Z,928.45
2016-10-17T07:40:17.590Z,928.39
2016-10-17T07:41:28.372Z,928.42
2016-10-17T07:42:38.897Z,928.47
2016-10-17T07:43:49.451Z,928.51
2016-10-17T07:44:59.998Z,928.5
2016-10-17T07:46:10.600Z,928.46
2016-10-17T07:47:21.600Z,928.42
2016-10-17T07:48:32.170Z,928.37
2016-10-17T07:49:42.736Z,928.37
2016-10-17T07:50:53.282Z,928.41
2016-10-17T07:52:04.293Z,928.37
2016-10-17T07:53:14.804Z,928.4
2016-10-17T07:54:25.371Z,928.47
2016-10-17T07:55:35.931Z,928.39
2016-10-17T07:56:46.474Z,928.38
2016-10-17T07:57:57.103Z,928.39
2016-10-17T07:59:07.711Z,928.41
2016-10-17T08:00:18.204Z,928.4
2016-10-17T08:01:28.713Z,928.43
2016-10-17T08:02:39.238Z,928.44
2016-10-17T08:03:49.866Z,928.44
2016-10-17T08:05:00.428Z,928.36
2016-10-17T08:06:10.955Z,928.36
2016-10-17T08:07:21.488Z,928.33
2016-10-17T08:08:32.030Z,928.32
2016-10-17T08:09:42.658Z,928.25
2016-10-17T08:10:53.246Z,928.31
2016-10-17T08:12:03.771Z,928.27
2016-10-17T08:13:14.311Z,928.31
2016-10-17T08:14:24.835Z,928.31
2016-10-17T08:15:35.347Z,928.31
2016-10-17T08:16:45.881Z,928.31
2016-10-17T08:17:56.422Z,928.3
2016-10-17T08:19:06.934Z,928.32
2016-10-17T08:20:17.526Z,928.29
2016-10-17T08:21:28.235Z,928.3
2016-10-17T08:22:38.757Z,928.27
2016-10-17T08:23:49.299Z,928.26
2016-10-17T08:24:59.879Z,928.27
2016-10-17T08:26:10.408Z,928.22
2016-10-17T08:27:21.077Z,928.19
2016-10-17T08:28:31.589Z,928.21
2016-10-17T08:29:42.127Z,928.17
2016-10-17T08:30:52.703Z,928.15
2016-10-17T08:32:03.215Z,928.16
2016-10-17T08:33:13.844Z,928.12
2016-10-17T08:34:24.396Z,928.11
2016-10-17T08:35:34.949Z,928.1
2016-10-17T08:36:45.494Z,928.06
2016-10-17T08:37:56.025Z,928.15
2016-10-17T08:39:06.554Z,928.12
2016-10-17T08:40:17.117Z,928.1
2016-10-17T08:41:27.667Z,928.12
2016-10-17T08:42:38.216Z,928.11
2016-10-17T08:43:48.721Z,928.14
2016-10-17T08:44:59.348Z,928.11
2016-10-17T08:46:09.830Z,928.09
2016-10-17T08:47:20.337Z,928.06
2016-10-17T08:48:30.890Z,928.08
2016-10-17T08:49:41.442Z,928.06
2016-10-17T08:50:52.107Z,927.98
2016-10-17T08:52:02.613Z,928.03
2016-10-17T08:53:13.165Z,927.99
2016-10-17T08:54:23.703Z,927.94
2016-10-17T08:55:34.282Z,927.94
2016-10-17T08:56:44.884Z,927.9
2016-10-17T08:57:55.477Z,927.89
2016-10-17T08:59:05.997Z,927.92
2016-10-17T09:00:16.542Z,927.9
2016-10-17T09:01:27.079Z,927.9
2016-10-17T09:02:37.706Z,927.92
2016-10-17T09:03:48.214Z,927.92
2016-10-17T09:04:58.755Z,927.89
2016-10-17T09:08:10.940Z,927.9
2016-10-17T09:09:21.615Z,927.86
2016-10-17T09:10:32.125Z,927.88
2016-10-17T09:11:42.717Z,927.85
2016-10-17T09:12:53.234Z,927.86
2016-10-17T09:14:03.840Z,927.84
2016-10-17T09:15:14.368Z,927.82
2016-10-17T09:16:24.861Z,927.87
2016-10-17T09:17:35.412Z,927.93
2016-10-17T09:18:45.946Z,927.94
2016-10-17T09:19:56.544Z,927.89
2016-10-17T09:21:07.092Z,927.82
2016-10-17T09:22:17.598Z,927.76
2016-10-17T09:23:28.318Z,927.78
2016-10-17T09:24:38.838Z,927.74
2016-10-17T09:25:49.487Z,927.69
2016-10-17T09:26:59.994Z,927.66
2016-10-17T09:28:10.519Z,927.68
2016-10-17T09:29:21.576Z,927.63
2016-10-17T09:30:32.088Z,927.69
2016-10-17T09:31:42.611Z,927.71
2016-10-17T09:32:53.162Z,927.74
2016-10-17T09:34:03.691Z,927.78
2016-10-17T09:35:14.272Z,927.82
2016-10-17T09:36:24.819Z,927.83
2016-10-17T09:37:35.437Z,927.78
2016-10-17T09:38:45.947Z,927.71
2016-10-17T09:39:56.472Z,927.7
2016-10-17T09:41:07.014Z,927.7
2016-10-17T09:42:17.504Z,927.7
2016-10-17T09:43:28.131Z,927.69
2016-10-17T09:44:38.675Z,927.71
2016-10-17T09:45:49.218Z,927.71
2016-10-17T09:46:59.765Z,927.76
2016-10-17T09:48:10.250Z,927.79
2016-10-17T09:49:20.809Z,927.74
2016-10-17T09:50:31.270Z,927.88
2016-10-17T09:51:41.758Z,927.99
2016-10-17T09:52:52.254Z,927.88
2016-10-17T09:54:03.207Z,927.92
2016-10-17T09:55:14.359Z,927.85
2016-10-17T09:56:24.826Z,927.75
2016-10-17T09:57:35.338Z,927.76
2016-10-17T09:58:45.819Z,928.08
2016-10-17T09:59:56.337Z,927.91
2016-10-17T10:01:06.929Z,928.28
2016-10-17T10:02:17.440Z,928.04
2016-10-17T10:03:27.919Z,927.9
2016-10-17T10:04:38.373Z,927.82
2016-10-17T10:05:48.894Z,927.82
2016-10-17T10:06:59.488Z,928.21
2016-10-17T10:08:09.955Z,928.12
2016-10-17T10:09:20.472Z,928.15
2016-10-17T10:10:30.975Z,928.17
2016-10-17T10:11:41.520Z,928.08
2016-10-17T10:12:52.026Z,928.28
2016-10-17T10:14:02.545Z,928.18
2016-10-17T10:15:13.017Z,927.94
2016-10-17T10:16:23.479Z,927.82
2016-10-17T10:17:34.084Z,928
2016-10-17T10:18:44.740Z,927.99
2016-10-17T10:19:55.307Z,928.02
2016-10-17T10:21:05.874Z,928.16
2016-10-17T10:22:16.463Z,927.93
2016-10-17T10:23:27.039Z,928.02
2016-10-17T10:24:37.714Z,928.11
2016-10-17T10:25:48.296Z,928.14
2016-10-17T10:26:58.911Z,928.18
2016-10-17T10:28:09.494Z,928.27
2016-10-17T10:29:20.066Z,928.16
2016-10-17T10:30:30.748Z,928.24
2016-10-17T10:31:41.321Z,928.23
2016-10-17T10:32:51.900Z,928.32
2016-10-17T10:34:02.484Z,928.34
2016-10-17T10:35:13.092Z,928.48
2016-10-17T10:36:23.685Z,928.36
2016-10-17T10:37:34.255Z,928.73
2016-10-17T10:38:44.919Z,928.68
2016-10-17T10:39:55.490Z,929.08
2016-10-17T10:41:06.560Z,928.92
2016-10-17T10:42:17.237Z,928.55
2016-10-17T10:43:27.847Z,928.84
2016-10-17T10:44:38.425Z,928.92
2016-10-17T10:45:49.001Z,929.07
2016-10-17T10:46:59.583Z,928.93
2016-10-17T10:48:10.256Z,928.79
2016-10-17T10:49:20.831Z,928.72
2016-10-17T10:50:31.424Z,928.83
2016-10-17T10:51:42.035Z,928.82
2016-10-17T10:52:52.577Z,928.93
2016-10-17T10:54:03.152Z,928.91
2016-10-17T10:55:13.664Z,929.06
2016-10-17T10:56:24.170Z,929.22
2016-10-17T10:57:34.698Z,929.26
2016-10-17T10:58:45.165Z,929.63
2016-10-17T10:59:56.255Z,930.65
2016-10-17T11:01:07.218Z,931.2
2016-10-17T11:02:17.690Z,931.49
2016-10-17T11:03:28.229Z,932.13
2016-10-17T11:04:38.710Z,932.67
2016-10-17T11:05:49.300Z,932.82
2016-10-17T11:06:59.818Z,932.48
2016-10-17T11:08:10.323Z,932.18
2016-10-17T11:09:20.812Z,932
2016-10-17T11:10:31.309Z,932.34
2016-10-17T11:11:41.946Z,932.45
2016-10-17T11:12:52.466Z,932.23
2016-10-17T11:14:02.952Z,932.03
2016-10-17T11:15:13.997Z,932.39
2016-10-17T11:16:24.532Z,932.66
2016-10-17T11:17:35.169Z,932.92
2016-10-17T11:18:45.803Z,933.06
2016-10-17T11:19:56.311Z,932.95
2016-10-17T11:21:06.872Z,933.08
2016-10-17T11:22:17.383Z,933.59
2016-10-17T11:23:27.943Z,933.61
2016-10-17T11:24:38.457Z,933.67
2016-10-17T11:25:49.046Z,933.79
2016-10-17T11:26:59.632Z,933.48
2016-10-17T11:28:10.223Z,933.54
2016-10-17T11:29:20.919Z,933.65
2016-10-17T11:30:31.522Z,933.81
2016-10-17T11:31:42.138Z,933.97
2016-10-17T11:32:52.727Z,934.35
2016-10-17T11:34:03.318Z,934.23
2016-10-17T11:35:14.023Z,934.34
2016-10-17T11:36:24.612Z,934.07
2016-10-17T11:37:35.708Z,934.66
2016-10-17T11:38:46.305Z,934.46
2016-10-17T11:39:56.893Z,934.73
2016-10-17T11:41:07.516Z,934.95
2016-10-17T11:42:18.106Z,935.32
2016-10-17T11:43:28.701Z,935.67
2016-10-17T11:44:39.294Z,935.48
2016-10-17T11:45:49.881Z,935.42
2016-10-17T11:47:01.068Z,935.61
2016-10-17T11:48:11.658Z,935.67
2016-10-17T11:49:22.277Z,936.14
2016-10-17T11:50:32.868Z,936.03
2016-10-17T11:51:43.451Z,936.42
2016-10-17T11:52:54.161Z,936.96
2016-10-17T11:54:04.794Z,937.43
2016-10-17T11:55:15.400Z,937.19
2016-10-17T11:56:25.990Z,938
2016-10-17T11:57:36.575Z,938.25
2016-10-17T11:58:47.168Z,938.92
2016-10-17T11:59:57.685Z,939.18
2016-10-17T12:01:08.249Z,939.68
2016-10-17T12:02:18.855Z,939.78
2016-10-17T12:03:29.408Z,939.92
2016-10-17T12:04:40.013Z,941
2016-10-17T12:05:50.689Z,941.79
2016-10-17T12:07:01.211Z,941.75
2016-10-17T12:08:11.754Z,942.07
2016-10-17T12:09:22.310Z,942.69
2016-10-17T12:10:33.008Z,942.2
2016-10-17T12:11:43.533Z,943.31
2016-10-17T12:12:54.109Z,943.08
2016-10-17T12:14:04.702Z,943.99
2016-10-17T12:15:15.269Z,945.17
2016-10-17T12:16:25.913Z,945.13
2016-10-17T12:17:36.517Z,945.1
2016-10-17T12:18:47.069Z,944.91
2016-10-17T12:19:57.675Z,946.2
2016-10-17T12:21:08.263Z,947.22
2016-10-17T12:22:18.917Z,948.07
2016-10-17T12:23:29.494Z,948.29
2016-10-17T12:24:40.053Z,948.5
2016-10-17T12:25:50.601Z,948.96
2016-10-17T12:27:01.191Z,949.77
2016-10-17T12:28:11.858Z,949.71
2016-10-17T12:29:22.384Z,949.89
2016-10-17T12:30:32.875Z,948.64
2016-10-17T12:31:43.461Z,948.85
2016-10-17T12:32:54.060Z,950.53
2016-10-17T12:34:04.811Z,950.75
2016-10-17T12:35:15.428Z,951.53
2016-10-17T12:36:26.513Z,952.09
2016-10-17T12:37:37.144Z,950.96
2016-10-17T12:38:47.741Z,951.13
2016-10-17T12:39:58.334Z,950.49
2016-10-17T12:41:08.936Z,950.69
2016-10-17T12:42:19.536Z,951.61
2016-10-17T12:43:30.134Z,951.01
2016-10-17T12:44:40.727Z,951.1
2016-10-17T12:45:51.427Z,950.19
2016-10-17T12:47:02.018Z,949.45
2016-10-17T12:48:12.609Z,949.37
2016-10-17T12:49:23.194Z,949.82
2016-10-17T12:50:33.780Z,947.93
2016-10-17T12:51:44.473Z,947.47
2016-10-17T12:52:55.553Z,946.46
2016-10-17T12:54:06.139Z,944.6
2016-10-17T12:55:16.731Z,943.68
2016-10-17T12:56:27.322Z,941.23
2016-10-17T12:57:38.015Z,940.64
2016-10-17T12:58:48.694Z,939.12
2016-10-17T12:59:59.805Z,937.18
2016-10-17T13:01:10.397Z,936.55
2016-10-17T13:02:21.002Z,935.08
2016-10-17T13:03:31.704Z,934.1
2016-10-17T13:04:42.292Z,933.34
2016-10-17T13:05:52.884Z,932.68
2016-10-17T13:07:03.406Z,932.21
2016-10-17T13:08:13.909Z,931.47
2016-10-17T13:09:24.526Z,930.92
2016-10-17T13:10:35.065Z,930.53
2016-10-17T13:11:45.579Z,930.31
2016-10-17T13:12:56.049Z,930.05
2016-10-17T13:15:48.924Z,929.24
2016-10-17T13:16:59.463Z,928.96
2016-10-17T13:18:09.990Z,928.73
2016-10-17T13:19:20.520Z,928.63
2016-10-17T13:20:31.173Z,928.53
2016-10-17T13:21:41.720Z,928.49
2016-10-17T13:22:52.226Z,928.32
2016-10-17T13:24:02.763Z,928.26
2016-10-17T13:25:13.273Z,928.15
2016-10-17T13:26:23.926Z,928.1
2016-10-17T13:27:34.489Z,927.99
2016-10-17T13:28:45.432Z,927.94
2016-10-17T13:29:55.946Z,927.93
2016-10-17T13:31:06.464Z,927.85
2016-10-17T13:32:17.059Z,927.73
2016-10-17T13:33:27.618Z,927.7
2016-10-17T13:34:38.090Z,927.62
2016-10-17T13:35:48.638Z,927.67
2016-10-17T13:36:59.168Z,927.64
2016-10-17T13:38:09.779Z,927.64
2016-10-17T13:39:20.298Z,927.51
2016-10-17T13:53:52.583Z,927.06
2016-10-17T13:55:03.122Z,926.98
2016-10-17T13:56:13.645Z,926.96
2016-10-17T13:57:24.173Z,926.99
2016-10-17T13:58:34.756Z,926.95
2016-10-17T13:59:45.287Z,926.97
2016-10-17T14:00:55.798Z,926.96
2016-10-17T14:02:06.319Z,926.96
2016-10-17T14:03:16.896Z,926.92
2016-10-17T14:04:27.404Z,926.94
2016-10-17T14:05:37.942Z,926.84
2016-10-17T14:06:48.421Z,926.81
2016-10-17T14:07:58.933Z,926.83
2016-10-17T14:09:09.475Z,926.78
2016-10-17T14:10:20.544Z,926.78
2016-10-17T14:11:31.111Z,926.71
2016-10-17T14:12:41.667Z,926.72
2016-10-17T14:13:52.186Z,926.74
2016-10-17T14:15:02.775Z,926.7
2016-10-17T14:16:13.299Z,926.65
2016-10-17T14:17:23.815Z,926.64
2016-10-17T14:18:34.352Z,926.61
2016-10-17T14:19:44.871Z,926.6
2016-10-17T14:20:55.401Z,926.66
2016-10-17T14:22:06.041Z,926.6
2016-10-17T14:23:16.614Z,926.62
2016-10-17T14:24:27.137Z,926.59
2016-10-17T14:25:37.645Z,926.58
2016-10-17T14:26:48.131Z,926.6
2016-10-17T14:27:58.653Z,926.45
2016-10-17T14:29:09.660Z,926.53
2016-10-17T14:30:20.148Z,926.51
2016-10-17T14:31:30.667Z,926.44
2016-10-17T14:32:41.172Z,926.47
2016-10-17T14:33:51.757Z,926.47
2016-10-17T14:35:02.290Z,926.43
2016-10-17T14:36:12.812Z,926.47
2016-10-17T14:37:23.349Z,926.48
2016-10-17T14:38:33.838Z,926.45
2016-10-17T14:39:44.350Z,926.42
2016-10-17T14:40:54.860Z,926.39
2016-10-17T14:42:05.415Z,926.4
2016-10-17T14:43:16.405Z,926.35
2016-10-17T14:44:26.949Z,926.31
2016-10-17T14:45:37.605Z,926.34
2016-10-17T14:46:48.165Z,926.35
2016-10-17T14:47:58.657Z,926.31
2016-10-17T14:49:09.192Z,926.28
2016-10-17T14:50:19.775Z,926.31
2016-10-17T14:51:30.356Z,926.31
2016-10-17T14:52:41.007Z,926.33
2016-10-17T14:53:51.502Z,926.29
2016-10-17T14:55:02.081Z,926.35
2016-10-17T14:56:12.565Z,926.31
2016-10-17T14:57:23.217Z,926.27
2016-10-17T14:58:33.771Z,926.22
2016-10-17T14:59:44.322Z,926.18
2016-10-17T15:00:54.851Z,926.2
2016-10-17T15:02:05.366Z,926.19
2016-10-17T15:03:16.355Z,926.2